Time;durP1;ratioP1;P1;durP2;ratioP2;P2;SDS_P1;SDS_P2;PMS_P1;PMS_P2;Temp;Humidity;BMP_temperature;BMP_pressure;BME280_temperature;BME280_humidity;BME280_pressure;Samples;Min_cycle;Max_cycle;Signal;HPM_P1;HPM_P2
2021/11/28 00:04:19;;;;;;;7.00;5.67;;;6.40;43.00;;;;;;10431774;28;20737;-73
2021/11/28 00:09:40;;;;;;;5.77;5.27;;;6.30;43.10;;;;;;10447915;28;20233;-73
2021/11/28 00:14:44;;;;;;;5.27;4.77;;;6.30;43.80;;;;;;10446847;28;20224;-73
2021/11/28 00:19:47;;;;;;;5.37;4.80;;;6.30;43.20;;;;;;10443182;28;20297;-72
2021/11/28 00:24:52;;;;;;;5.70;5.20;;;6.30;43.30;;;;;;10447485;28;20246;-73
2021/11/28 00:29:55;;;;;;;6.37;5.83;;;6.30;43.50;;;;;;10437017;28;20315;-73
2021/11/28 00:34:58;;;;;;;5.23;4.77;;;6.30;43.40;;;;;;10453000;28;20225;-73
2021/11/28 00:40:04;;;;;;;5.50;5.03;;;6.30;43.20;;;;;;10447503;28;20259;-73
2021/11/28 00:45:08;;;;;;;6.33;5.63;;;6.20;43.40;;;;;;10451388;28;20228;-73
2021/11/28 00:50:25;;;;;;;5.87;5.37;;;6.30;43.70;;;;;;10450930;28;20315;-73
2021/11/28 00:55:30;;;;;;;6.30;5.80;;;6.30;43.80;;;;;;10446024;28;20254;-73
2021/11/28 01:00:33;;;;;;;5.80;5.30;;;6.30;43.60;;;;;;10448612;28;20231;-73
2021/11/28 01:05:36;;;;;;;4.43;4.03;;;6.30;43.30;;;;;;10450219;28;20232;-73
2021/11/28 01:10:41;;;;;;;4.80;4.40;;;6.30;43.40;;;;;;10453810;28;20239;-72
2021/11/28 01:15:44;;;;;;;5.37;4.87;;;6.30;43.50;;;;;;10460397;28;20240;-73
2021/11/28 01:20:48;;;;;;;5.30;4.80;;;6.20;43.70;;;;;;10447641;28;20225;-72
2021/11/28 01:25:52;;;;;;;4.83;4.33;;;6.20;43.70;;;;;;10444679;28;20243;-73
2021/11/28 01:30:56;;;;;;;5.73;4.60;;;6.20;43.70;;;;;;10457414;28;21175;-73
2021/11/28 01:35:59;;;;;;;5.60;5.10;;;6.20;43.70;;;;;;10447737;28;20293;-72
2021/11/28 01:41:04;;;;;;;5.07;4.67;;;6.20;43.70;;;;;;10448571;28;20224;-73
2021/11/28 01:46:08;;;;;;;6.43;5.80;;;6.30;43.80;;;;;;10457039;28;20316;-72
2021/11/28 01:51:13;;;;;;;5.83;5.20;;;6.30;43.80;;;;;;10457567;28;20243;-72
2021/11/28 01:56:17;;;;;;;5.40;4.60;;;6.30;43.80;;;;;;10448600;28;20231;-73
2021/11/28 02:01:22;;;;;;;4.97;4.57;;;6.30;43.80;;;;;;10461889;28;20782;-73
2021/11/28 02:06:25;;;;;;;5.13;4.63;;;6.40;43.90;;;;;;10461034;28;20240;-72
2021/11/28 02:11:30;;;;;;;4.17;3.77;;;6.40;43.80;;;;;;10457013;28;20233;-73
2021/11/28 02:16:33;;;;;;;4.27;3.87;;;6.40;43.70;;;;;;10452286;28;20233;-73
2021/11/28 02:21:38;;;;;;;4.83;3.93;;;6.40;43.50;;;;;;10461960;28;20877;-73
2021/11/28 02:26:41;;;;;;;3.73;3.43;;;6.30;43.40;;;;;;10457028;28;20240;-73
2021/11/28 02:31:45;;;;;;;4.10;3.40;;;6.30;43.40;;;;;;10455433;28;20315;-73
2021/11/28 02:36:53;;;;;;;3.70;3.40;;;6.20;43.50;;;;;;10448359;28;20243;-72
2021/11/28 02:41:56;;;;;;;4.20;3.80;;;6.20;43.70;;;;;;10448927;28;20228;-73
2021/11/28 02:47:00;;;;;;;4.03;3.73;;;6.10;43.60;;;;;;10450921;28;20333;-72
2021/11/28 02:52:09;;;;;;;4.17;3.83;;;6.10;43.70;;;;;;10445731;28;20583;-73
2021/11/28 02:57:14;;;;;;;3.50;3.20;;;6.10;43.60;;;;;;10441164;28;20232;-72
2021/11/28 03:02:17;;;;;;;3.93;3.63;;;6.10;43.80;;;;;;10453776;28;20212;-72
2021/11/28 03:07:22;;;;;;;4.40;4.00;;;6.10;43.70;;;;;;10442833;28;20698;-72
2021/11/28 03:12:25;;;;;;;4.40;4.00;;;6.10;43.80;;;;;;10450540;28;20262;-72
2021/11/28 03:17:28;;;;;;;3.90;3.57;;;6.10;43.70;;;;;;10442664;28;20591;-72
2021/11/28 03:22:33;;;;;;;3.90;3.60;;;6.10;43.60;;;;;;10451177;28;20228;-72
2021/11/28 03:27:36;;;;;;;3.77;3.47;;;6.10;43.60;;;;;;10450584;28;20236;-72
2021/11/28 03:32:40;;;;;;;4.33;3.93;;;6.10;43.60;;;;;;10447215;28;20579;-72
2021/11/28 03:37:45;;;;;;;3.70;3.40;;;6.10;43.60;;;;;;10450815;28;20313;-72
2021/11/28 03:42:48;;;;;;;3.50;3.20;;;6.10;44.40;;;;;;10445518;28;20605;-73
2021/11/28 03:47:51;;;;;;;3.80;3.50;;;6.10;43.60;;;;;;10453588;28;20236;-73
2021/11/28 03:52:56;;;;;;;3.63;3.23;;;6.10;43.60;;;;;;10444667;28;20685;-74
2021/11/28 03:57:59;;;;;;;3.97;3.57;;;6.10;43.70;;;;;;10454292;28;20240;-74
2021/11/28 04:03:04;;;;;;;5.30;3.40;;;6.10;43.70;;;;;;10456189;28;20792;-74
2021/11/28 04:08:09;;;;;;;4.70;3.40;;;6.10;43.60;;;;;;10446312;28;20233;-73
2021/11/28 04:13:12;;;;;;;4.10;3.70;;;6.00;43.50;;;;;;10448258;28;20239;-73
2021/11/28 04:18:16;;;;;;;3.83;3.53;;;6.00;43.60;;;;;;10458307;28;20232;-74
2021/11/28 04:23:20;;;;;;;3.77;3.47;;;6.00;43.70;;;;;;10454766;28;20227;-74
2021/11/28 04:28:23;;;;;;;3.50;3.20;;;6.00;43.90;;;;;;10456075;28;20233;-74
2021/11/28 04:33:27;;;;;;;4.20;3.80;;;6.00;43.80;;;;;;10446563;28;20225;-74
2021/11/28 04:38:32;;;;;;;4.40;3.30;;;6.10;43.90;;;;;;10453014;28;20714;-73
2021/11/28 04:43:35;;;;;;;3.90;3.50;;;6.10;43.80;;;;;;10446211;28;20221;-74
2021/11/28 04:48:38;;;;;;;3.70;3.40;;;6.10;43.60;;;;;;10454334;28;20225;-74
2021/11/28 04:53:43;;;;;;;4.20;3.80;;;6.10;43.60;;;;;;10449573;28;20234;-74
2021/11/28 04:58:46;;;;;;;3.43;3.13;;;6.10;43.60;;;;;;10447319;28;20233;-74
2021/11/28 05:03:49;;;;;;;3.17;2.97;;;6.10;43.60;;;;;;10455530;28;20221;-74
2021/11/28 05:08:54;;;;;;;3.37;3.07;;;6.00;43.50;;;;;;10467053;28;20229;-74
2021/11/28 05:13:57;;;;;;;4.67;4.27;;;6.00;43.60;;;;;;10455139;28;20221;-74
2021/11/28 05:19:01;;;;;;;4.80;4.30;;;6.00;43.50;;;;;;10457300;28;20313;-74
2021/11/28 05:24:06;;;;;;;4.27;3.87;;;6.00;43.50;;;;;;10457478;28;20236;-74
2021/11/28 05:29:09;;;;;;;4.10;3.67;;;6.00;43.50;;;;;;10453598;28;20250;-74
2021/11/28 05:34:12;;;;;;;4.17;3.73;;;6.00;43.50;;;;;;10457112;28;20232;-74
2021/11/28 05:39:17;;;;;;;5.20;4.70;;;6.00;43.60;;;;;;10446842;28;20725;-74
2021/11/28 05:44:20;;;;;;;4.63;4.23;;;6.00;43.60;;;;;;10452532;28;20239;-74
2021/11/28 05:49:23;;;;;;;4.57;4.17;;;6.00;43.60;;;;;;10465037;28;20232;-74
2021/11/28 05:54:28;;;;;;;4.37;3.97;;;5.90;43.50;;;;;;10461707;28;20604;-74
2021/11/28 05:59:31;;;;;;;4.57;4.17;;;6.00;43.70;;;;;;10451691;28;20606;-74
2021/11/28 06:04:34;;;;;;;3.53;3.27;;;6.00;43.60;;;;;;10455702;28;20229;-74
2021/11/28 06:09:39;;;;;;;3.50;3.20;;;6.00;43.50;;;;;;10456091;28;20331;-74
2021/11/28 06:14:42;;;;;;;3.97;3.57;;;6.00;43.60;;;;;;10459728;28;20244;-74
2021/11/28 06:19:45;;;;;;;4.80;4.40;;;6.00;43.50;;;;;;10450855;28;20593;-74
2021/11/28 06:24:49;;;;;;;4.30;4.00;;;6.00;43.50;;;;;;10450968;28;20300;-74
2021/11/28 06:29:53;;;;;;;4.13;3.83;;;6.00;43.60;;;;;;10460071;28;20596;-73
2021/11/28 06:34:56;;;;;;;4.50;4.10;;;6.00;43.70;;;;;;10450300;28;20231;-74
2021/11/28 06:40:03;;;;;;;4.30;3.90;;;6.00;43.70;;;;;;10450029;28;20313;-73
2021/11/28 06:45:08;;;;;;;4.27;3.87;;;6.00;43.80;;;;;;10454738;28;20221;-74
2021/11/28 06:50:21;;;;;;;4.90;4.40;;;6.00;43.70;;;;;;10449540;28;20221;-74
2021/11/28 06:55:26;;;;;;;5.07;4.67;;;6.00;43.70;;;;;;10458267;28;20229;-73
2021/11/28 07:00:29;;;;;;;4.73;4.33;;;6.10;43.70;;;;;;10463234;28;20603;-74
2021/11/28 07:05:33;;;;;;;4.70;4.30;;;6.10;43.60;;;;;;10459228;28;20286;-74
2021/11/28 07:10:39;;;;;;;4.03;3.73;;;6.10;43.60;;;;;;10453475;28;20236;-73
2021/11/28 07:15:42;;;;;;;5.27;4.87;;;6.10;43.70;;;;;;10461972;28;20291;-74
2021/11/28 07:20:46;;;;;;;5.63;5.20;;;6.10;43.80;;;;;;10459020;28;20263;-74
2021/11/28 07:25:51;;;;;;;4.87;4.47;;;6.10;43.70;;;;;;10456661;28;20239;-74
2021/11/28 07:30:54;;;;;;;4.00;3.70;;;6.10;43.70;;;;;;10459974;28;20734;-74
2021/11/28 07:35:57;;;;;;;5.90;5.30;;;6.10;43.80;;;;;;10455602;28;20253;-74
2021/11/28 07:41:03;;;;;;;12.07;10.27;;;6.10;44.00;;;;;;10470786;28;20865;-74
2021/11/28 07:46:06;;;;;;;9.80;8.80;;;6.10;43.90;;;;;;10454840;28;20828;-74
2021/11/28 07:51:10;;;;;;;8.67;7.77;;;6.10;43.90;;;;;;10459643;28;20220;-74
2021/11/28 07:56:15;;;;;;;9.33;8.27;;;6.10;44.10;;;;;;10448252;28;20221;-74
2021/11/28 08:01:18;;;;;;;10.40;8.60;;;6.10;44.20;;;;;;10448038;28;20216;-74
2021/11/28 08:06:22;;;;;;;8.27;7.47;;;6.10;44.20;;;;;;10448577;28;20237;-74
2021/11/28 08:11:26;;;;;;;7.30;6.53;;;6.10;44.30;;;;;;10448700;28;20241;-74
2021/11/28 08:16:30;;;;;;;6.90;6.03;;;6.10;44.30;;;;;;10447891;28;20236;-73
2021/11/28 08:21:34;;;;;;;6.53;6.03;;;6.20;44.30;;;;;;10445445;28;20229;-74
2021/11/28 08:26:38;;;;;;;6.10;5.50;;;6.20;44.10;;;;;;10445593;28;20298;-74
2021/11/28 08:31:41;;;;;;;6.57;5.97;;;6.20;44.10;;;;;;10445328;28;20243;-76
2021/11/28 08:36:45;;;;;;;5.67;5.20;;;6.10;44.00;;;;;;10445206;28;20229;-74
2021/11/28 08:41:49;;;;;;;5.27;4.37;;;6.10;44.20;;;;;;10445272;28;20225;-74
2021/11/28 08:46:54;;;;;;;6.67;6.07;;;6.10;44.40;;;;;;10448706;28;20237;-74
2021/11/28 08:51:57;;;;;;;5.30;4.80;;;6.10;44.30;;;;;;10454615;28;20837;-74
2021/11/28 08:57:02;;;;;;;4.57;4.20;;;6.00;44.30;;;;;;10454823;28;20569;-74
2021/11/28 09:02:05;;;;;;;4.87;4.47;;;6.00;44.60;;;;;;10455866;28;20251;-74
2021/11/28 09:07:09;;;;;;;4.27;3.97;;;6.00;44.60;;;;;;10449734;28;20601;-74
2021/11/28 09:12:13;;;;;;;5.17;4.77;;;6.00;44.70;;;;;;10448796;28;20237;-74
2021/11/28 09:17:17;;;;;;;6.93;6.37;;;6.00;44.90;;;;;;10432153;28;20221;-75
2021/11/28 09:22:33;;;;;;;5.43;4.93;;;5.90;44.80;;;;;;10451668;28;20643;-74
2021/11/28 09:27:38;;;;;;;5.70;5.20;;;6.00;44.80;;;;;;10447352;28;20239;-74
2021/11/28 09:32:41;;;;;;;6.07;5.30;;;5.90;44.80;;;;;;10450733;28;20228;-75
2021/11/28 09:37:45;;;;;;;5.43;4.93;;;5.90;44.80;;;;;;10452547;28;20268;-75
2021/11/28 09:42:53;;;;;;;6.07;5.50;;;5.90;45.00;;;;;;10440654;28;20237;-74
2021/11/28 09:47:57;;;;;;;5.30;4.80;;;6.00;45.50;;;;;;10466496;28;20267;-74
2021/11/28 09:53:03;;;;;;;5.47;4.97;;;6.00;45.10;;;;;;10482368;28;20933;-74
2021/11/28 09:58:09;;;;;;;5.00;4.57;;;6.00;45.20;;;;;;10474280;28;20244;-73
2021/11/28 10:03:12;;;;;;;5.23;4.80;;;6.00;45.30;;;;;;10445811;28;20324;-74
2021/11/28 10:08:15;;;;;;;5.93;5.43;;;6.00;45.00;;;;;;10443027;28;20233;-74
2021/11/28 10:13:20;;;;;;;5.40;4.90;;;6.00;45.80;;;;;;10440268;28;20228;-74
2021/11/28 10:18:23;;;;;;;5.63;4.80;;;6.00;45.30;;;;;;10439352;28;20225;-74
2021/11/28 10:23:26;;;;;;;4.37;4.07;;;6.00;45.10;;;;;;10438050;28;20233;-73
2021/11/28 10:28:31;;;;;;;4.50;4.10;;;6.00;45.10;;;;;;10447190;28;20233;-74
2021/11/28 10:33:34;;;;;;;4.33;4.03;;;5.90;45.20;;;;;;10441594;28;20237;-73
2021/11/28 10:38:40;;;;;;;3.90;3.60;;;5.90;45.30;;;;;;10442427;28;20247;-73
2021/11/28 10:43:45;;;;;;;4.30;3.90;;;5.90;45.40;;;;;;10441598;28;20224;-72
2021/11/28 10:49:03;;;;;;;4.83;4.10;;;6.00;45.50;;;;;;10437439;28;20240;-75
2021/11/28 10:54:25;;;;;;;5.50;5.00;;;6.00;46.00;;;;;;10440030;28;21778;-75
2021/11/28 10:59:30;;;;;;;7.07;4.73;;;6.00;46.00;;;;;;10439930;28;20241;-73
2021/11/28 11:04:40;;;;;;;5.57;4.97;;;6.10;45.70;;;;;;10442899;28;20256;-74
2021/11/28 11:09:45;;;;;;;5.63;5.13;;;6.10;45.90;;;;;;10441567;28;20247;-74
2021/11/28 11:14:51;;;;;;;5.23;4.83;;;6.20;45.70;;;;;;10441724;28;20233;-75
2021/11/28 11:20:00;;;;;;;5.50;5.00;;;6.20;45.60;;;;;;10445061;28;20229;-75
2021/11/28 11:25:14;;;;;;;5.27;4.87;;;6.30;45.50;;;;;;10437300;28;20229;-75
2021/11/28 11:30:25;;;;;;;5.47;5.07;;;6.30;45.70;;;;;;10439789;28;20231;-75
2021/11/28 11:35:30;;;;;;;5.63;4.90;;;6.30;45.50;;;;;;10441677;28;20225;-76
2021/11/28 11:40:34;;;;;;;5.53;5.13;;;6.30;45.50;;;;;;10445550;28;20237;-75
2021/11/28 11:45:39;;;;;;;6.33;5.83;;;6.30;45.50;;;;;;10437238;28;20228;-76
2021/11/28 11:50:42;;;;;;;10.20;9.17;;;6.30;45.50;;;;;;10441435;28;20233;-75
2021/11/28 11:55:47;;;;;;;15.10;10.97;;;6.30;45.30;;;;;;10439259;28;20241;-75
2021/11/28 12:01:00;;;;;;;7.60;6.90;;;6.30;45.40;;;;;;10442983;28;20229;-75
2021/11/28 12:06:05;;;;;;;7.07;6.47;;;6.30;45.50;;;;;;10443432;28;20233;-75
2021/11/28 12:11:11;;;;;;;6.77;6.27;;;6.30;45.30;;;;;;10441046;28;20235;-76
2021/11/28 12:16:20;;;;;;;7.67;6.97;;;6.40;45.40;;;;;;10446268;28;20231;-76
2021/11/28 12:21:39;;;;;;;8.10;7.43;;;6.40;45.50;;;;;;10440738;28;20647;-76
2021/11/28 12:26:45;;;;;;;8.17;7.47;;;6.40;45.60;;;;;;10438947;28;20918;-75
2021/11/28 12:31:51;;;;;;;6.80;6.20;;;6.50;45.30;;;;;;10448612;28;20718;-75
2021/11/28 12:36:56;;;;;;;7.20;6.50;;;6.60;45.40;;;;;;10456042;28;20238;-75
2021/11/28 12:42:01;;;;;;;11.80;10.70;;;6.60;45.30;;;;;;10449880;28;20223;-75
2021/11/28 12:47:23;;;;;;;8.27;7.57;;;6.60;45.30;;;;;;10448037;28;20235;-75
2021/11/28 12:52:45;;;;;;;7.83;7.20;;;6.70;45.60;;;;;;10447739;28;20679;-75
2021/11/28 12:58:05;;;;;;;6.00;5.43;;;6.70;45.30;;;;;;10446790;28;20232;-75
2021/11/28 13:03:26;;;;;;;5.67;5.27;;;6.70;45.40;;;;;;10446212;28;20232;-75
2021/11/28 13:08:38;;;;;;;5.93;5.53;;;6.70;45.40;;;;;;10448142;28;20747;-75
2021/11/28 13:14:00;;;;;;;5.20;4.80;;;6.70;45.30;;;;;;10443573;28;20268;-75
2021/11/28 13:19:05;;;;;;;4.93;4.53;;;6.70;45.30;;;;;;10446124;28;20691;-75
2021/11/28 13:24:09;;;;;;;5.00;4.50;;;6.70;45.20;;;;;;10451282;28;20749;-75
2021/11/28 13:29:12;;;;;;;4.80;4.40;;;6.80;45.30;;;;;;10439498;28;20237;-74
2021/11/28 13:34:17;;;;;;;3.93;3.33;;;6.90;45.40;;;;;;10445525;28;20385;-75
2021/11/28 13:39:22;;;;;;;5.03;2.97;;;6.90;45.10;;;;;;10441717;28;20233;-73
2021/11/28 13:44:27;;;;;;;2.70;2.50;;;6.90;45.00;;;;;;10446728;28;20225;-74
2021/11/28 13:49:33;;;;;;;3.00;2.80;;;6.90;44.80;;;;;;10444368;28;20228;-74
2021/11/28 13:54:39;;;;;;;3.20;3.00;;;6.90;44.60;;;;;;10445285;28;20558;-74
2021/11/28 13:59:43;;;;;;;6.03;5.43;;;6.90;44.30;;;;;;10442819;28;20236;-74
2021/11/28 14:04:51;;;;;;;7.77;6.93;;;6.80;44.30;;;;;;10439702;28;20236;-74
2021/11/28 14:09:56;;;;;;;4.33;4.00;;;6.80;44.50;;;;;;10444641;28;20220;-76
2021/11/28 14:15:01;;;;;;;4.20;3.90;;;6.70;44.40;;;;;;10444121;28;20221;-77
2021/11/28 14:20:10;;;;;;;4.20;3.90;;;6.70;44.50;;;;;;10444764;28;20225;-74
2021/11/28 14:25:35;;;;;;;4.87;4.50;;;6.70;44.60;;;;;;10447209;28;20254;-75
2021/11/28 14:30:40;;;;;;;5.73;5.23;;;6.70;44.70;;;;;;10443528;28;20649;-76
2021/11/28 14:35:51;;;;;;;6.70;6.10;;;6.70;44.60;;;;;;10450744;28;20241;-75
2021/11/28 14:40:57;;;;;;;6.07;5.47;;;6.70;44.60;;;;;;10443462;28;20251;-75
2021/11/28 14:46:05;;;;;;;6.10;5.50;;;6.70;44.20;;;;;;10444353;28;20332;-75
2021/11/28 14:51:12;;;;;;;5.50;5.00;;;6.60;44.10;;;;;;10443924;28;20212;-75
2021/11/28 14:56:26;;;;;;;6.73;6.23;;;6.50;44.50;;;;;;10443096;28;20225;-76
2021/11/28 15:01:30;;;;;;;6.60;6.00;;;6.50;44.40;;;;;;10443673;28;20328;-76
2021/11/28 15:06:58;;;;;;;6.77;6.23;;;6.40;44.40;;;;;;10443305;28;20309;-76
2021/11/28 15:12:03;;;;;;;6.70;6.10;;;6.30;44.30;;;;;;10440598;28;20315;-77
2021/11/28 15:17:08;;;;;;;5.23;4.83;;;6.30;45.20;;;;;;10443070;28;20303;-75
2021/11/28 15:22:12;;;;;;;6.87;6.27;;;6.40;47.10;;;;;;10446924;28;20685;-74
2021/11/28 15:27:21;;;;;;;6.77;6.17;;;6.50;46.20;;;;;;10440625;28;20242;-74
2021/11/28 15:32:24;;;;;;;8.70;8.00;;;6.70;45.50;;;;;;10444856;28;20351;-74
2021/11/28 15:37:29;;;;;;;6.93;6.23;;;6.70;45.00;;;;;;10445144;28;20239;-74
2021/11/28 15:42:32;;;;;;;8.90;8.10;;;6.80;44.80;;;;;;10439616;28;20229;-73
2021/11/28 15:47:35;;;;;;;6.40;5.83;;;6.80;44.80;;;;;;10443405;28;20231;-74
2021/11/28 15:52:41;;;;;;;7.63;6.87;;;6.80;44.60;;;;;;10445113;28;20311;-74
2021/11/28 15:57:46;;;;;;;8.60;7.60;;;6.80;44.30;;;;;;10443412;28;20235;-73
2021/11/28 16:02:50;;;;;;;7.20;6.50;;;6.80;44.20;;;;;;10444297;28;20270;-73
2021/11/28 16:07:55;;;;;;;6.13;5.53;;;6.80;44.30;;;;;;10454433;23;21208;-72
2021/11/28 16:12:58;;;;;;;6.63;6.03;;;6.80;44.20;;;;;;10413238;28;20213;-73
2021/11/28 16:18:01;;;;;;;6.33;5.83;;;6.70;44.10;;;;;;10392775;28;20578;-73
2021/11/28 16:23:06;;;;;;;8.30;7.50;;;6.70;44.10;;;;;;10398324;28;20230;-73
2021/11/28 16:28:09;;;;;;;8.03;7.27;;;6.60;44.20;;;;;;10396350;28;20233;-73
2021/11/28 16:33:13;;;;;;;9.47;8.53;;;6.60;44.40;;;;;;10389367;28;20264;-73
2021/11/28 16:38:18;;;;;;;8.40;7.70;;;6.60;44.40;;;;;;10390634;28;20611;-73
2021/11/28 16:43:21;;;;;;;9.20;8.27;;;6.60;44.50;;;;;;10399252;28;20217;-73
2021/11/28 16:48:27;;;;;;;8.23;7.43;;;6.60;44.60;;;;;;10397836;28;20232;-73
2021/11/28 16:53:32;;;;;;;8.40;7.60;;;6.70;44.60;;;;;;10393559;28;20233;-73
2021/11/28 16:58:35;;;;;;;8.73;7.83;;;6.70;44.60;;;;;;10390132;28;20248;-73
2021/11/28 17:03:39;;;;;;;11.13;10.17;;;6.70;44.60;;;;;;10395911;28;20225;-73
2021/11/28 17:08:43;;;;;;;10.23;9.33;;;6.70;44.40;;;;;;10396645;28;20218;-73
2021/11/28 17:13:47;;;;;;;10.53;9.60;;;6.70;44.10;;;;;;10402971;28;20226;-73
2021/11/28 17:18:50;;;;;;;8.47;7.67;;;6.70;44.10;;;;;;10401387;28;20723;-74
2021/11/28 17:23:56;;;;;;;10.97;9.93;;;6.60;44.00;;;;;;10400167;28;20315;-73
2021/11/28 17:29:01;;;;;;;10.03;9.17;;;6.60;44.20;;;;;;10406857;28;20226;-73
2021/11/28 17:34:04;;;;;;;11.20;10.20;;;6.50;44.40;;;;;;10402678;28;20229;-72
2021/11/28 17:39:12;;;;;;;10.23;9.23;;;6.50;44.50;;;;;;10403179;28;20222;-71
2021/11/28 17:44:17;;;;;;;12.00;10.60;;;6.50;44.50;;;;;;10389813;28;20324;-72
2021/11/28 17:49:20;;;;;;;9.53;8.70;;;6.50;44.40;;;;;;10401134;28;20229;-72
2021/11/28 17:54:25;;;;;;;13.10;11.43;;;6.50;44.40;;;;;;10403894;28;20238;-72
2021/11/28 17:59:28;;;;;;;12.50;11.30;;;6.50;44.40;;;;;;10406202;28;20222;-72
2021/11/28 18:04:31;;;;;;;23.53;21.33;;;6.50;44.30;;;;;;10398189;28;20252;-72
2021/11/28 18:09:36;;;;;;;13.10;11.80;;;6.50;44.40;;;;;;10396109;28;20604;-72
2021/11/28 18:14:39;;;;;;;12.10;11.00;;;6.30;44.40;;;;;;10403326;28;20617;-72
2021/11/28 18:19:42;;;;;;;12.07;10.90;;;6.30;44.40;;;;;;10398013;28;20221;-72
2021/11/28 18:24:47;;;;;;;12.93;11.77;;;6.20;44.40;;;;;;10450158;22;20225;-78
2021/11/28 18:29:50;;;;;;;12.17;10.97;;;6.10;44.70;;;;;;10481856;28;20747;-77
2021/11/28 18:34:54;;;;;;;11.83;10.80;;;6.10;44.70;;;;;;10493558;28;20270;-78
2021/11/28 18:39:58;;;;;;;12.93;11.50;;;6.00;44.90;;;;;;10495422;28;20228;-76
2021/11/28 18:45:01;;;;;;;12.97;11.70;;;6.00;45.10;;;;;;10500475;28;20575;-77
2021/11/28 18:50:08;;;;;;;11.93;10.70;;;6.10;45.10;;;;;;10501400;28;20669;-77
2021/11/28 18:55:15;;;;;;;11.83;10.77;;;6.10;45.10;;;;;;10500576;28;20314;-76
2021/11/28 19:00:21;;;;;;;10.27;9.30;;;6.20;45.00;;;;;;10520447;28;20254;-76
2021/11/28 19:05:25;;;;;;;10.97;10.00;;;6.20;44.60;;;;;;10506291;28;20227;-78
2021/11/28 19:10:30;;;;;;;9.57;8.77;;;6.10;44.30;;;;;;10495639;28;20251;-77
2021/11/28 19:15:34;;;;;;;10.33;9.43;;;6.10;44.50;;;;;;10511111;28;20319;-77
2021/11/28 19:20:37;;;;;;;10.07;9.07;;;6.10;44.50;;;;;;10495693;28;20710;-77
2021/11/28 19:25:43;;;;;;;9.77;8.87;;;6.00;44.50;;;;;;10515608;28;20226;-77
2021/11/28 19:30:46;;;;;;;11.67;10.50;;;6.00;44.70;;;;;;10510069;28;20227;-77
2021/11/28 19:35:52;;;;;;;10.43;9.43;;;6.00;44.70;;;;;;10506529;28;20319;-77
2021/11/28 19:40:58;;;;;;;9.20;8.40;;;6.00;44.60;;;;;;10500711;28;20232;-78
2021/11/28 19:46:02;;;;;;;9.67;8.87;;;6.00;44.80;;;;;;10517445;28;20218;-76
2021/11/28 19:51:05;;;;;;;10.47;9.47;;;6.00;44.70;;;;;;10508112;28;20720;-77
2021/11/28 19:56:10;;;;;;;10.37;9.47;;;6.00;44.70;;;;;;10501571;28;20234;-77
2021/11/28 20:01:14;;;;;;;11.33;10.23;;;6.00;44.90;;;;;;10502962;28;20233;-80
2021/11/28 20:06:18;;;;;;;12.67;11.47;;;5.90;44.70;;;;;;10500906;28;20220;-78
2021/11/28 20:11:23;;;;;;;13.67;12.33;;;5.90;44.80;;;;;;10508348;28;24876;-78
2021/11/28 20:16:29;;;;;;;10.83;9.83;;;5.80;45.00;;;;;;10512073;28;20237;-77
2021/11/28 20:21:32;;;;;;;13.47;12.17;;;5.80;45.00;;;;;;10489568;28;20238;-77
2021/11/28 20:26:41;;;;;;;14.00;12.53;;;5.70;45.10;;;;;;10488056;28;20283;-82
2021/11/28 20:31:46;;;;;;;10.27;9.37;;;5.70;45.20;;;;;;10498539;28;20253;-85
2021/11/28 20:36:50;;;;;;;11.50;10.23;;;5.70;45.20;;;;;;10506766;28;20259;-79
2021/11/28 20:41:55;;;;;;;10.13;9.23;;;5.70;45.30;;;;;;10512297;28;20319;-79
2021/11/28 20:46:58;;;;;;;11.10;10.10;;;5.80;45.40;;;;;;10518070;28;20230;-78
2021/11/28 20:52:01;;;;;;;10.17;9.30;;;5.80;45.40;;;;;;10534953;28;20583;-82
2021/11/28 20:57:06;;;;;;;10.07;9.17;;;5.80;45.30;;;;;;10549398;28;20239;-78
2021/11/28 21:02:12;;;;;;;8.23;7.57;;;5.90;45.40;;;;;;10521613;28;20232;-79
2021/11/28 21:07:15;;;;;;;10.10;9.20;;;5.90;45.30;;;;;;10524149;28;20223;-77
2021/11/28 21:12:20;;;;;;;9.93;9.03;;;6.00;45.30;;;;;;10544216;28;20645;-78
2021/11/28 21:17:23;;;;;;;10.07;9.17;;;6.00;45.30;;;;;;10540868;28;20223;-77
2021/11/28 21:22:27;;;;;;;9.60;8.80;;;6.10;45.20;;;;;;10523088;28;20260;-77
2021/11/28 21:27:32;;;;;;;9.77;8.97;;;6.10;45.10;;;;;;10524590;28;20253;-76
2021/11/28 21:32:35;;;;;;;10.07;9.17;;;6.10;45.20;;;;;;10542361;28;20258;-77
2021/11/28 21:37:41;;;;;;;10.97;9.97;;;6.10;45.10;;;;;;10541269;28;20237;-77
2021/11/28 21:42:48;;;;;;;9.83;8.93;;;6.10;45.10;;;;;;10540866;28;20315;-77
2021/11/28 21:47:53;;;;;;;11.23;10.07;;;6.00;45.10;;;;;;10541238;28;20736;-77
2021/11/28 21:52:57;;;;;;;10.57;9.67;;;6.10;45.20;;;;;;10538649;28;20234;-77
2021/11/28 21:58:02;;;;;;;11.40;10.40;;;6.10;45.10;;;;;;10539944;28;20315;-80
2021/11/28 22:03:05;;;;;;;11.70;10.60;;;6.10;45.10;;;;;;10541057;28;20231;-78
2021/11/28 22:08:10;;;;;;;12.87;11.67;;;6.10;45.00;;;;;;10542904;28;20779;-81
2021/11/28 22:13:15;;;;;;;11.77;10.77;;;6.10;44.80;;;;;;10542948;28;20223;-80
2021/11/28 22:18:18;;;;;;;10.87;9.90;;;6.10;44.70;;;;;;10542778;28;20251;-79
2021/11/28 22:23:21;;;;;;;11.60;10.53;;;6.00;44.70;;;;;;10543369;28;25373;-81
2021/11/28 22:28:26;;;;;;;11.77;10.70;;;6.00;44.70;;;;;;10542748;28;20310;-80
2021/11/28 22:33:30;;;;;;;9.77;8.93;;;6.00;44.90;;;;;;10543151;28;20263;-80
2021/11/28 22:38:33;;;;;;;11.23;10.23;;;6.00;44.90;;;;;;10544217;28;20247;-80
2021/11/28 22:43:38;;;;;;;13.23;11.77;;;6.00;45.00;;;;;;10542704;28;20231;-79
2021/11/28 22:48:42;;;;;;;12.10;11.00;;;6.00;44.70;;;;;;10541230;28;20254;-80
2021/11/28 22:53:45;;;;;;;11.07;10.07;;;6.00;44.70;;;;;;10542697;28;20235;-79
2021/11/28 22:58:50;;;;;;;11.83;10.83;;;5.90;44.70;;;;;;10542901;28;20240;-79
2021/11/28 23:04:00;;;;;;;11.83;10.77;;;5.90;44.70;;;;;;10543486;28;20239;-81
2021/11/28 23:09:05;;;;;;;11.63;10.60;;;5.80;44.70;;;;;;10543416;28;20670;-79
2021/11/28 23:14:10;;;;;;;11.87;10.87;;;5.80;44.70;;;;;;10544266;28;20247;-80
2021/11/28 23:19:14;;;;;;;12.77;11.57;;;5.80;44.90;;;;;;10542184;28;20246;-81
2021/11/28 23:24:18;;;;;;;10.13;9.03;;;5.80;44.80;;;;;;10544158;28;20231;-81
2021/11/28 23:29:24;;;;;;;12.43;10.77;;;5.80;45.00;;;;;;10543509;28;20316;-82
2021/11/28 23:34:27;;;;;;;11.57;10.47;;;5.80;45.00;;;;;;10544028;28;20227;-81
2021/11/28 23:39:30;;;;;;;10.97;9.97;;;5.80;45.00;;;;;;10543541;28;20258;-82
2021/11/28 23:44:35;;;;;;;12.33;11.23;;;5.80;45.00;;;;;;10543574;28;20250;-83
2021/11/28 23:49:38;;;;;;;11.30;10.30;;;5.80;45.00;;;;;;10543191;28;20574;-81
2021/11/28 23:54:44;;;;;;;11.50;10.40;;;5.80;45.10;;;;;;10542200;28;20228;-82
2021/11/28 23:59:49;;;;;;;11.07;10.07;;;5.80;45.00;;;;;;10542052;28;20227;-81
